sensor_id;sensor_type;location;lat;lon;timestamp;P1;durP1;ratioP1;P2;durP2;ratioP2
6372;SDS011;3219;51.362;7.074;2023-07-09T00:01:44;4.50;;;2.83;;
6372;SDS011;3219;51.362;7.074;2023-07-09T00:04:11;6.40;;;3.90;;
6372;SDS011;3219;51.362;7.074;2023-07-09T00:06:38;7.47;;;3.40;;
6372;SDS011;3219;51.362;7.074;2023-07-09T00:09:08;5.45;;;3.83;;
6372;SDS011;3219;51.362;7.074;2023-07-09T00:11:39;5.75;;;2.75;;
6372;SDS011;3219;51.362;7.074;2023-07-09T00:14:06;5.57;;;3.85;;
6372;SDS011;3219;51.362;7.074;2023-07-09T00:16:33;6.38;;;3.88;;
6372;SDS011;3219;51.362;7.074;2023-07-09T00:19:02;4.85;;;2.90;;
6372;SDS011;3219;51.362;7.074;2023-07-09T00:21:29;6.10;;;3.35;;
6372;SDS011;3219;51.362;7.074;2023-07-09T00:23:58;5.25;;;3.03;;
6372;SDS011;3219;51.362;7.074;2023-07-09T00:26:31;5.72;;;4.15;;
6372;SDS011;3219;51.362;7.074;2023-07-09T00:28:58;5.18;;;3.05;;
6372;SDS011;3219;51.362;7.074;2023-07-09T00:31:25;5.85;;;3.50;;
6372;SDS011;3219;51.362;7.074;2023-07-09T00:33:53;5.65;;;3.10;;
6372;SDS011;3219;51.362;7.074;2023-07-09T00:36:28;5.18;;;4.00;;
6372;SDS011;3219;51.362;7.074;2023-07-09T00:38:56;5.53;;;3.35;;
6372;SDS011;3219;51.362;7.074;2023-07-09T00:41:24;5.28;;;2.97;;
6372;SDS011;3219;51.362;7.074;2023-07-09T00:49:07;7.18;;;3.20;;
6372;SDS011;3219;51.362;7.074;2023-07-09T00:51:42;4.63;;;2.97;;
6372;SDS011;3219;51.362;7.074;2023-07-09T00:54:11;4.53;;;3.15;;
6372;SDS011;3219;51.362;7.074;2023-07-09T00:56:40;6.80;;;3.42;;
6372;SDS011;3219;51.362;7.074;2023-07-09T00:59:10;4.97;;;3.20;;
6372;SDS011;3219;51.362;7.074;2023-07-09T01:01:40;5.75;;;2.92;;
6372;SDS011;3219;51.362;7.074;2023-07-09T01:04:08;6.22;;;3.60;;
6372;SDS011;3219;51.362;7.074;2023-07-09T01:06:37;6.88;;;3.15;;
6372;SDS011;3219;51.362;7.074;2023-07-09T01:09:05;7.65;;;3.60;;
6372;SDS011;3219;51.362;7.074;2023-07-09T01:11:33;5.57;;;3.05;;
6372;SDS011;3219;51.362;7.074;2023-07-09T01:14:03;6.25;;;3.40;;
6372;SDS011;3219;51.362;7.074;2023-07-09T01:16:33;5.55;;;3.25;;
6372;SDS011;3219;51.362;7.074;2023-07-09T01:19:01;4.78;;;3.42;;
6372;SDS011;3219;51.362;7.074;2023-07-09T01:21:30;6.25;;;3.35;;
6372;SDS011;3219;51.362;7.074;2023-07-09T01:23:57;5.30;;;3.33;;
6372;SDS011;3219;51.362;7.074;2023-07-09T01:26:25;6.05;;;4.00;;
6372;SDS011;3219;51.362;7.074;2023-07-09T01:28:53;7.30;;;3.55;;
6372;SDS011;3219;51.362;7.074;2023-07-09T01:31:20;4.25;;;3.08;;
6372;SDS011;3219;51.362;7.074;2023-07-09T01:33:48;6.63;;;3.42;;
6372;SDS011;3219;51.362;7.074;2023-07-09T01:36:16;6.82;;;3.63;;
6372;SDS011;3219;51.362;7.074;2023-07-09T01:38:49;6.00;;;3.75;;
6372;SDS011;3219;51.362;7.074;2023-07-09T01:41:18;6.45;;;3.63;;
6372;SDS011;3219;51.362;7.074;2023-07-09T01:43:45;6.53;;;3.75;;
6372;SDS011;3219;51.362;7.074;2023-07-09T01:46:12;5.22;;;4.15;;
6372;SDS011;3219;51.362;7.074;2023-07-09T01:48:40;5.28;;;3.47;;
6372;SDS011;3219;51.362;7.074;2023-07-09T01:51:07;6.95;;;4.57;;
6372;SDS011;3219;51.362;7.074;2023-07-09T01:53:34;6.15;;;3.60;;
6372;SDS011;3219;51.362;7.074;2023-07-09T01:56:05;6.70;;;3.58;;
6372;SDS011;3219;51.362;7.074;2023-07-09T01:58:32;5.22;;;3.72;;
6372;SDS011;3219;51.362;7.074;2023-07-09T02:00:59;5.45;;;3.15;;
6372;SDS011;3219;51.362;7.074;2023-07-09T02:03:27;7.47;;;3.45;;
6372;SDS011;3219;51.362;7.074;2023-07-09T02:05:54;6.90;;;3.72;;
6372;SDS011;3219;51.362;7.074;2023-07-09T02:08:23;7.13;;;3.72;;
6372;SDS011;3219;51.362;7.074;2023-07-09T02:10:50;7.18;;;3.65;;
6372;SDS011;3219;51.362;7.074;2023-07-09T02:13:19;7.10;;;3.60;;
6372;SDS011;3219;51.362;7.074;2023-07-09T02:15:46;5.45;;;3.40;;
6372;SDS011;3219;51.362;7.074;2023-07-09T02:18:13;9.05;;;3.90;;
6372;SDS011;3219;51.362;7.074;2023-07-09T02:20:40;5.40;;;3.50;;
6372;SDS011;3219;51.362;7.074;2023-07-09T02:23:07;6.13;;;3.33;;
6372;SDS011;3219;51.362;7.074;2023-07-09T02:25:35;6.57;;;3.72;;
6372;SDS011;3219;51.362;7.074;2023-07-09T02:28:02;6.50;;;3.95;;
6372;SDS011;3219;51.362;7.074;2023-07-09T02:30:31;7.07;;;4.32;;
6372;SDS011;3219;51.362;7.074;2023-07-09T02:32:58;6.05;;;3.88;;
6372;SDS011;3219;51.362;7.074;2023-07-09T02:35:25;5.10;;;3.78;;
6372;SDS011;3219;51.362;7.074;2023-07-09T02:37:52;6.32;;;4.07;;
6372;SDS011;3219;51.362;7.074;2023-07-09T02:40:20;7.18;;;3.92;;
6372;SDS011;3219;51.362;7.074;2023-07-09T02:42:47;7.93;;;3.88;;
6372;SDS011;3219;51.362;7.074;2023-07-09T02:45:14;7.07;;;4.03;;
6372;SDS011;3219;51.362;7.074;2023-07-09T02:47:43;7.18;;;3.47;;
6372;SDS011;3219;51.362;7.074;2023-07-09T02:50:11;7.13;;;4.25;;
6372;SDS011;3219;51.362;7.074;2023-07-09T02:52:39;5.38;;;3.38;;
6372;SDS011;3219;51.362;7.074;2023-07-09T02:55:08;6.50;;;4.00;;
6372;SDS011;3219;51.362;7.074;2023-07-09T02:57:35;6.72;;;3.88;;
6372;SDS011;3219;51.362;7.074;2023-07-09T03:00:02;6.22;;;3.85;;
6372;SDS011;3219;51.362;7.074;2023-07-09T03:02:31;7.43;;;4.47;;
6372;SDS011;3219;51.362;7.074;2023-07-09T03:04:59;6.75;;;4.10;;
6372;SDS011;3219;51.362;7.074;2023-07-09T03:07:26;6.82;;;3.78;;
6372;SDS011;3219;51.362;7.074;2023-07-09T03:09:53;7.47;;;4.20;;
6372;SDS011;3219;51.362;7.074;2023-07-09T03:12:20;6.28;;;3.85;;
6372;SDS011;3219;51.362;7.074;2023-07-09T03:14:48;8.07;;;3.70;;
6372;SDS011;3219;51.362;7.074;2023-07-09T03:17:15;6.32;;;3.88;;
6372;SDS011;3219;51.362;7.074;2023-07-09T03:19:42;6.20;;;4.22;;
6372;SDS011;3219;51.362;7.074;2023-07-09T03:22:11;6.53;;;3.40;;
6372;SDS011;3219;51.362;7.074;2023-07-09T03:24:38;6.93;;;4.25;;
6372;SDS011;3219;51.362;7.074;2023-07-09T03:27:05;6.82;;;3.97;;
6372;SDS011;3219;51.362;7.074;2023-07-09T03:29:32;8.35;;;4.18;;
6372;SDS011;3219;51.362;7.074;2023-07-09T03:32:00;7.88;;;4.30;;
6372;SDS011;3219;51.362;7.074;2023-07-09T03:34:27;7.68;;;3.65;;
6372;SDS011;3219;51.362;7.074;2023-07-09T03:36:54;5.85;;;3.67;;
6372;SDS011;3219;51.362;7.074;2023-07-09T03:39:22;5.45;;;3.63;;
6372;SDS011;3219;51.362;7.074;2023-07-09T03:41:49;6.00;;;3.45;;
6372;SDS011;3219;51.362;7.074;2023-07-09T03:44:16;7.70;;;3.75;;
6372;SDS011;3219;51.362;7.074;2023-07-09T03:46:43;8.30;;;4.38;;
6372;SDS011;3219;51.362;7.074;2023-07-09T03:49:10;5.78;;;3.50;;
6372;SDS011;3219;51.362;7.074;2023-07-09T03:51:37;7.03;;;3.90;;
6372;SDS011;3219;51.362;7.074;2023-07-09T03:54:04;6.10;;;3.90;;
6372;SDS011;3219;51.362;7.074;2023-07-09T03:56:33;6.80;;;4.07;;
6372;SDS011;3219;51.362;7.074;2023-07-09T03:59:02;6.35;;;4.05;;
6372;SDS011;3219;51.362;7.074;2023-07-09T04:01:29;4.90;;;3.50;;
6372;SDS011;3219;51.362;7.074;2023-07-09T04:03:56;5.70;;;3.50;;
6372;SDS011;3219;51.362;7.074;2023-07-09T04:06:23;7.82;;;4.00;;
6372;SDS011;3219;51.362;7.074;2023-07-09T04:08:50;6.95;;;3.60;;
6372;SDS011;3219;51.362;7.074;2023-07-09T04:11:17;6.60;;;4.38;;
6372;SDS011;3219;51.362;7.074;2023-07-09T04:13:45;6.22;;;3.88;;
6372;SDS011;3219;51.362;7.074;2023-07-09T04:16:12;6.97;;;3.80;;
6372;SDS011;3219;51.362;7.074;2023-07-09T04:18:39;5.63;;;3.63;;
6372;SDS011;3219;51.362;7.074;2023-07-09T04:21:07;5.47;;;3.47;;
6372;SDS011;3219;51.362;7.074;2023-07-09T04:23:34;5.53;;;3.58;;
6372;SDS011;3219;51.362;7.074;2023-07-09T04:26:01;5.80;;;3.25;;
6372;SDS011;3219;51.362;7.074;2023-07-09T04:28:29;7.32;;;3.90;;
6372;SDS011;3219;51.362;7.074;2023-07-09T04:30:57;6.05;;;3.97;;
6372;SDS011;3219;51.362;7.074;2023-07-09T04:33:24;7.20;;;3.20;;
6372;SDS011;3219;51.362;7.074;2023-07-09T04:35:51;6.85;;;4.13;;
6372;SDS011;3219;51.362;7.074;2023-07-09T04:38:18;6.50;;;3.20;;
6372;SDS011;3219;51.362;7.074;2023-07-09T04:40:46;5.68;;;3.05;;
6372;SDS011;3219;51.362;7.074;2023-07-09T04:43:13;5.88;;;3.60;;
6372;SDS011;3219;51.362;7.074;2023-07-09T04:45:40;6.40;;;3.30;;
6372;SDS011;3219;51.362;7.074;2023-07-09T04:48:09;6.45;;;3.92;;
6372;SDS011;3219;51.362;7.074;2023-07-09T04:50:36;6.88;;;3.13;;
6372;SDS011;3219;51.362;7.074;2023-07-09T04:53:05;5.38;;;3.05;;
6372;SDS011;3219;51.362;7.074;2023-07-09T04:55:32;7.47;;;3.22;;
6372;SDS011;3219;51.362;7.074;2023-07-09T04:57:59;9.10;;;3.53;;
6372;SDS011;3219;51.362;7.074;2023-07-09T05:00:26;5.50;;;3.60;;
6372;SDS011;3219;51.362;7.074;2023-07-09T05:02:53;5.95;;;3.38;;
6372;SDS011;3219;51.362;7.074;2023-07-09T05:05:22;5.85;;;3.47;;
6372;SDS011;3219;51.362;7.074;2023-07-09T05:07:49;7.03;;;4.53;;
6372;SDS011;3219;51.362;7.074;2023-07-09T05:10:16;7.13;;;3.03;;
6372;SDS011;3219;51.362;7.074;2023-07-09T05:12:47;5.38;;;3.55;;
6372;SDS011;3219;51.362;7.074;2023-07-09T05:15:15;6.47;;;4.00;;
6372;SDS011;3219;51.362;7.074;2023-07-09T05:17:42;8.15;;;3.63;;
6372;SDS011;3219;51.362;7.074;2023-07-09T05:20:09;6.40;;;3.38;;
6372;SDS011;3219;51.362;7.074;2023-07-09T05:22:38;7.63;;;3.80;;
6372;SDS011;3219;51.362;7.074;2023-07-09T05:25:05;6.32;;;3.80;;
6372;SDS011;3219;51.362;7.074;2023-07-09T05:27:32;6.88;;;3.75;;
6372;SDS011;3219;51.362;7.074;2023-07-09T05:29:59;6.82;;;3.65;;
6372;SDS011;3219;51.362;7.074;2023-07-09T05:32:26;6.32;;;3.55;;
6372;SDS011;3219;51.362;7.074;2023-07-09T05:34:53;6.25;;;3.72;;
6372;SDS011;3219;51.362;7.074;2023-07-09T05:37:20;7.28;;;3.47;;
6372;SDS011;3219;51.362;7.074;2023-07-09T05:39:49;6.57;;;3.88;;
6372;SDS011;3219;51.362;7.074;2023-07-09T05:42:16;8.50;;;3.40;;
6372;SDS011;3219;51.362;7.074;2023-07-09T05:44:43;7.63;;;3.88;;
6372;SDS011;3219;51.362;7.074;2023-07-09T05:47:10;5.80;;;3.40;;
6372;SDS011;3219;51.362;7.074;2023-07-09T05:49:37;5.85;;;3.15;;
6372;SDS011;3219;51.362;7.074;2023-07-09T05:52:05;6.15;;;3.72;;
6372;SDS011;3219;51.362;7.074;2023-07-09T05:54:32;7.20;;;4.10;;
6372;SDS011;3219;51.362;7.074;2023-07-09T05:57:01;7.50;;;3.47;;
6372;SDS011;3219;51.362;7.074;2023-07-09T05:59:28;5.13;;;3.35;;
6372;SDS011;3219;51.362;7.074;2023-07-09T06:01:55;6.70;;;3.65;;
6372;SDS011;3219;51.362;7.074;2023-07-09T06:04:22;5.60;;;3.60;;
6372;SDS011;3219;51.362;7.074;2023-07-09T06:06:50;5.95;;;3.22;;
6372;SDS011;3219;51.362;7.074;2023-07-09T06:09:17;6.32;;;3.17;;
6372;SDS011;3219;51.362;7.074;2023-07-09T06:11:44;4.38;;;3.53;;
6372;SDS011;3219;51.362;7.074;2023-07-09T06:14:12;5.90;;;3.88;;
6372;SDS011;3219;51.362;7.074;2023-07-09T06:16:42;5.05;;;3.28;;
6372;SDS011;3219;51.362;7.074;2023-07-09T06:19:09;6.88;;;3.38;;
6372;SDS011;3219;51.362;7.074;2023-07-09T06:21:36;7.78;;;4.05;;
6372;SDS011;3219;51.362;7.074;2023-07-09T06:24:03;7.82;;;3.88;;
6372;SDS011;3219;51.362;7.074;2023-07-09T06:26:30;5.72;;;3.53;;
6372;SDS011;3219;51.362;7.074;2023-07-09T06:28:57;6.18;;;3.58;;
6372;SDS011;3219;51.362;7.074;2023-07-09T06:31:26;5.88;;;3.60;;
6372;SDS011;3219;51.362;7.074;2023-07-09T06:33:53;7.68;;;3.90;;
6372;SDS011;3219;51.362;7.074;2023-07-09T06:36:20;5.80;;;3.85;;
6372;SDS011;3219;51.362;7.074;2023-07-09T06:38:47;6.10;;;3.42;;
6372;SDS011;3219;51.362;7.074;2023-07-09T06:41:15;6.25;;;4.07;;
6372;SDS011;3219;51.362;7.074;2023-07-09T06:43:42;5.72;;;4.22;;
6372;SDS011;3219;51.362;7.074;2023-07-09T06:46:10;5.15;;;3.17;;
6372;SDS011;3219;51.362;7.074;2023-07-09T06:48:38;7.25;;;3.45;;
6372;SDS011;3219;51.362;7.074;2023-07-09T06:51:05;5.63;;;3.30;;
6372;SDS011;3219;51.362;7.074;2023-07-09T06:53:33;4.93;;;3.50;;
6372;SDS011;3219;51.362;7.074;2023-07-09T06:56:01;5.40;;;3.67;;
6372;SDS011;3219;51.362;7.074;2023-07-09T06:58:29;8.98;;;4.20;;
6372;SDS011;3219;51.362;7.074;2023-07-09T07:00:57;7.93;;;4.20;;
6372;SDS011;3219;51.362;7.074;2023-07-09T07:03:24;7.25;;;3.58;;
6372;SDS011;3219;51.362;7.074;2023-07-09T07:05:52;6.85;;;4.43;;
6372;SDS011;3219;51.362;7.074;2023-07-09T07:08:20;5.22;;;3.85;;
6372;SDS011;3219;51.362;7.074;2023-07-09T07:10:48;7.72;;;4.30;;
6372;SDS011;3219;51.362;7.074;2023-07-09T07:13:15;6.30;;;3.67;;
6372;SDS011;3219;51.362;7.074;2023-07-09T07:15:44;5.75;;;3.75;;
6372;SDS011;3219;51.362;7.074;2023-07-09T07:18:11;6.68;;;4.32;;
6372;SDS011;3219;51.362;7.074;2023-07-09T07:20:38;6.78;;;4.15;;
6372;SDS011;3219;51.362;7.074;2023-07-09T07:23:07;8.50;;;4.35;;
6372;SDS011;3219;51.362;7.074;2023-07-09T07:25:34;7.05;;;3.60;;
6372;SDS011;3219;51.362;7.074;2023-07-09T07:28:01;6.03;;;3.85;;
6372;SDS011;3219;51.362;7.074;2023-07-09T07:30:28;5.90;;;3.78;;
6372;SDS011;3219;51.362;7.074;2023-07-09T07:32:55;8.23;;;3.53;;
6372;SDS011;3219;51.362;7.074;2023-07-09T07:35:22;8.18;;;3.83;;
6372;SDS011;3219;51.362;7.074;2023-07-09T07:37:49;6.10;;;3.08;;
6372;SDS011;3219;51.362;7.074;2023-07-09T07:40:18;6.35;;;3.35;;
6372;SDS011;3219;51.362;7.074;2023-07-09T07:42:45;5.93;;;3.67;;
6372;SDS011;3219;51.362;7.074;2023-07-09T07:45:12;7.13;;;3.80;;
6372;SDS011;3219;51.362;7.074;2023-07-09T07:47:39;8.13;;;3.60;;
6372;SDS011;3219;51.362;7.074;2023-07-09T07:50:07;8.50;;;3.97;;
6372;SDS011;3219;51.362;7.074;2023-07-09T07:52:34;6.57;;;4.30;;
6372;SDS011;3219;51.362;7.074;2023-07-09T07:55:02;8.38;;;3.83;;
6372;SDS011;3219;51.362;7.074;2023-07-09T07:57:31;5.53;;;4.00;;
6372;SDS011;3219;51.362;7.074;2023-07-09T07:59:58;7.05;;;4.22;;
6372;SDS011;3219;51.362;7.074;2023-07-09T08:02:25;5.13;;;3.58;;
6372;SDS011;3219;51.362;7.074;2023-07-09T08:04:52;7.07;;;3.97;;
6372;SDS011;3219;51.362;7.074;2023-07-09T08:07:19;7.45;;;4.20;;
6372;SDS011;3219;51.362;7.074;2023-07-09T08:09:47;5.97;;;4.07;;
6372;SDS011;3219;51.362;7.074;2023-07-09T08:12:14;8.15;;;4.35;;
6372;SDS011;3219;51.362;7.074;2023-07-09T08:14:44;7.78;;;4.30;;
6372;SDS011;3219;51.362;7.074;2023-07-09T08:17:12;5.13;;;3.97;;
6372;SDS011;3219;51.362;7.074;2023-07-09T08:19:45;8.20;;;4.25;;
6372;SDS011;3219;51.362;7.074;2023-07-09T08:22:13;7.40;;;4.20;;
6372;SDS011;3219;51.362;7.074;2023-07-09T08:24:40;7.53;;;4.35;;
6372;SDS011;3219;51.362;7.074;2023-07-09T08:27:07;5.75;;;3.65;;
6372;SDS011;3219;51.362;7.074;2023-07-09T08:29:35;7.15;;;3.78;;
6372;SDS011;3219;51.362;7.074;2023-07-09T08:32:04;7.05;;;4.30;;
6372;SDS011;3219;51.362;7.074;2023-07-09T08:34:31;6.18;;;3.80;;
6372;SDS011;3219;51.362;7.074;2023-07-09T08:36:58;7.22;;;3.90;;
6372;SDS011;3219;51.362;7.074;2023-07-09T08:39:25;6.32;;;4.47;;
6372;SDS011;3219;51.362;7.074;2023-07-09T08:41:54;5.85;;;3.97;;
6372;SDS011;3219;51.362;7.074;2023-07-09T08:44:27;6.47;;;4.40;;
6372;SDS011;3219;51.362;7.074;2023-07-09T08:47:00;5.25;;;3.90;;
6372;SDS011;3219;51.362;7.074;2023-07-09T08:49:33;5.90;;;3.50;;
6372;SDS011;3219;51.362;7.074;2023-07-09T08:52:02;6.80;;;3.70;;
6372;SDS011;3219;51.362;7.074;2023-07-09T08:54:31;6.88;;;3.50;;
6372;SDS011;3219;51.362;7.074;2023-07-09T08:57:00;6.05;;;3.80;;
6372;SDS011;3219;51.362;7.074;2023-07-09T08:59:29;7.10;;;3.67;;
6372;SDS011;3219;51.362;7.074;2023-07-09T09:01:56;6.45;;;3.97;;
6372;SDS011;3219;51.362;7.074;2023-07-09T09:04:27;6.10;;;3.55;;
6372;SDS011;3219;51.362;7.074;2023-07-09T09:06:59;5.65;;;3.35;;
6372;SDS011;3219;51.362;7.074;2023-07-09T09:09:30;6.72;;;4.50;;
6372;SDS011;3219;51.362;7.074;2023-07-09T09:11:59;6.90;;;3.83;;
6372;SDS011;3219;51.362;7.074;2023-07-09T09:14:31;5.07;;;3.13;;
6372;SDS011;3219;51.362;7.074;2023-07-09T09:16:58;4.65;;;3.70;;
6372;SDS011;3219;51.362;7.074;2023-07-09T09:19:26;5.47;;;3.35;;
6372;SDS011;3219;51.362;7.074;2023-07-09T09:21:56;6.57;;;3.17;;
6372;SDS011;3219;51.362;7.074;2023-07-09T09:24:27;5.50;;;3.58;;
6372;SDS011;3219;51.362;7.074;2023-07-09T09:26:56;7.45;;;3.53;;
6372;SDS011;3219;51.362;7.074;2023-07-09T09:29:24;5.28;;;3.20;;
6372;SDS011;3219;51.362;7.074;2023-07-09T09:31:52;6.28;;;3.63;;
6372;SDS011;3219;51.362;7.074;2023-07-09T09:34:22;4.88;;;2.65;;
6372;SDS011;3219;51.362;7.074;2023-07-09T09:36:49;7.63;;;2.83;;
6372;SDS011;3219;51.362;7.074;2023-07-09T09:39:16;6.90;;;3.00;;
6372;SDS011;3219;51.362;7.074;2023-07-09T09:41:45;5.25;;;2.83;;
6372;SDS011;3219;51.362;7.074;2023-07-09T09:44:17;4.80;;;2.88;;
6372;SDS011;3219;51.362;7.074;2023-07-09T09:46:44;5.82;;;2.78;;
6372;SDS011;3219;51.362;7.074;2023-07-09T09:49:12;4.55;;;2.67;;
6372;SDS011;3219;51.362;7.074;2023-07-09T09:51:40;7.95;;;3.33;;
6372;SDS011;3219;51.362;7.074;2023-07-09T09:54:10;4.97;;;3.20;;
6372;SDS011;3219;51.362;7.074;2023-07-09T09:56:38;6.30;;;2.55;;
6372;SDS011;3219;51.362;7.074;2023-07-09T09:59:13;4.97;;;2.50;;
6372;SDS011;3219;51.362;7.074;2023-07-09T10:01:43;5.97;;;2.42;;
6372;SDS011;3219;51.362;7.074;2023-07-09T10:04:10;5.40;;;2.78;;
6372;SDS011;3219;51.362;7.074;2023-07-09T10:06:42;7.65;;;2.40;;
6372;SDS011;3219;51.362;7.074;2023-07-09T10:09:13;5.75;;;2.83;;
6372;SDS011;3219;51.362;7.074;2023-07-09T10:11:44;4.55;;;2.35;;
6372;SDS011;3219;51.362;7.074;2023-07-09T10:14:18;4.95;;;2.50;;
6372;SDS011;3219;51.362;7.074;2023-07-09T10:16:49;4.90;;;2.50;;
6372;SDS011;3219;51.362;7.074;2023-07-09T10:19:22;4.07;;;2.55;;
6372;SDS011;3219;51.362;7.074;2023-07-09T10:21:51;4.15;;;2.63;;
6372;SDS011;3219;51.362;7.074;2023-07-09T10:24:27;4.55;;;2.80;;
6372;SDS011;3219;51.362;7.074;2023-07-09T10:26:56;4.43;;;2.67;;
6372;SDS011;3219;51.362;7.074;2023-07-09T10:32:15;5.32;;;2.20;;
6372;SDS011;3219;51.362;7.074;2023-07-09T10:34:47;6.30;;;2.53;;
6372;SDS011;3219;51.362;7.074;2023-07-09T10:37:20;5.65;;;2.85;;
6372;SDS011;3219;51.362;7.074;2023-07-09T10:39:50;4.45;;;2.83;;
6372;SDS011;3219;51.362;7.074;2023-07-09T10:42:18;5.35;;;2.83;;
6372;SDS011;3219;51.362;7.074;2023-07-09T10:44:51;5.05;;;2.50;;
6372;SDS011;3219;51.362;7.074;2023-07-09T10:47:24;3.97;;;2.20;;
6372;SDS011;3219;51.362;7.074;2023-07-09T10:49:52;5.85;;;2.63;;
6372;SDS011;3219;51.362;7.074;2023-07-09T10:52:21;5.07;;;2.38;;
6372;SDS011;3219;51.362;7.074;2023-07-09T10:54:52;4.55;;;2.17;;
6372;SDS011;3219;51.362;7.074;2023-07-09T10:57:22;4.28;;;2.45;;
6372;SDS011;3219;51.362;7.074;2023-07-09T10:59:51;4.38;;;3.00;;
6372;SDS011;3219;51.362;7.074;2023-07-09T11:02:21;4.22;;;2.97;;
6372;SDS011;3219;51.362;7.074;2023-07-09T11:04:51;5.25;;;2.38;;
6372;SDS011;3219;51.362;7.074;2023-07-09T11:07:25;6.10;;;2.75;;
6372;SDS011;3219;51.362;7.074;2023-07-09T11:09:53;5.13;;;2.50;;
6372;SDS011;3219;51.362;7.074;2023-07-09T11:12:23;4.88;;;2.40;;
6372;SDS011;3219;51.362;7.074;2023-07-09T11:14:51;5.35;;;2.53;;
6372;SDS011;3219;51.362;7.074;2023-07-09T11:17:20;5.50;;;2.65;;
6372;SDS011;3219;51.362;7.074;2023-07-09T11:19:55;5.22;;;2.58;;
6372;SDS011;3219;51.362;7.074;2023-07-09T11:22:24;6.60;;;2.90;;
6372;SDS011;3219;51.362;7.074;2023-07-09T11:24:52;4.13;;;2.42;;
6372;SDS011;3219;51.362;7.074;2023-07-09T11:27:22;4.55;;;3.40;;
6372;SDS011;3219;51.362;7.074;2023-07-09T11:29:55;4.57;;;2.50;;
6372;SDS011;3219;51.362;7.074;2023-07-09T11:32:23;5.25;;;2.85;;
6372;SDS011;3219;51.362;7.074;2023-07-09T11:34:51;5.80;;;2.50;;
6372;SDS011;3219;51.362;7.074;2023-07-09T11:37:19;4.63;;;2.35;;
6372;SDS011;3219;51.362;7.074;2023-07-09T11:39:47;4.72;;;2.55;;
6372;SDS011;3219;51.362;7.074;2023-07-09T11:42:27;5.32;;;2.50;;
6372;SDS011;3219;51.362;7.074;2023-07-09T11:44:57;5.28;;;2.83;;
6372;SDS011;3219;51.362;7.074;2023-07-09T11:47:25;4.88;;;2.53;;
6372;SDS011;3219;51.362;7.074;2023-07-09T11:49:57;4.15;;;2.47;;
6372;SDS011;3219;51.362;7.074;2023-07-09T11:52:26;4.55;;;2.53;;
6372;SDS011;3219;51.362;7.074;2023-07-09T11:54:54;4.40;;;2.50;;
6372;SDS011;3219;51.362;7.074;2023-07-09T11:57:21;5.13;;;2.70;;
6372;SDS011;3219;51.362;7.074;2023-07-09T11:59:49;4.57;;;2.40;;
6372;SDS011;3219;51.362;7.074;2023-07-09T12:02:17;3.42;;;2.53;;
6372;SDS011;3219;51.362;7.074;2023-07-09T12:04:47;4.43;;;2.38;;
6372;SDS011;3219;51.362;7.074;2023-07-09T12:07:16;3.47;;;2.05;;
6372;SDS011;3219;51.362;7.074;2023-07-09T12:09:46;4.22;;;2.10;;
6372;SDS011;3219;51.362;7.074;2023-07-09T12:12:18;5.03;;;2.83;;
6372;SDS011;3219;51.362;7.074;2023-07-09T12:14:45;4.72;;;2.35;;
6372;SDS011;3219;51.362;7.074;2023-07-09T12:17:12;5.15;;;2.35;;
6372;SDS011;3219;51.362;7.074;2023-07-09T12:19:39;4.97;;;2.22;;
6372;SDS011;3219;51.362;7.074;2023-07-09T12:22:09;4.63;;;2.40;;
6372;SDS011;3219;51.362;7.074;2023-07-09T12:24:39;4.07;;;2.40;;
6372;SDS011;3219;51.362;7.074;2023-07-09T12:27:17;4.65;;;2.35;;
6372;SDS011;3219;51.362;7.074;2023-07-09T12:29:44;5.85;;;2.97;;
6372;SDS011;3219;51.362;7.074;2023-07-09T12:32:12;5.57;;;2.50;;
6372;SDS011;3219;51.362;7.074;2023-07-09T12:34:40;4.93;;;2.55;;
6372;SDS011;3219;51.362;7.074;2023-07-09T12:37:07;5.85;;;2.38;;
6372;SDS011;3219;51.362;7.074;2023-07-09T12:39:38;5.07;;;2.70;;
6372;SDS011;3219;51.362;7.074;2023-07-09T12:42:09;3.83;;;2.55;;
6372;SDS011;3219;51.362;7.074;2023-07-09T12:44:39;5.57;;;2.88;;
6372;SDS011;3219;51.362;7.074;2023-07-09T12:47:07;4.38;;;2.58;;
6372;SDS011;3219;51.362;7.074;2023-07-09T12:49:38;5.70;;;2.83;;
6372;SDS011;3219;51.362;7.074;2023-07-09T12:52:10;5.18;;;2.83;;
6372;SDS011;3219;51.362;7.074;2023-07-09T12:54:40;6.85;;;3.05;;
6372;SDS011;3219;51.362;7.074;2023-07-09T12:57:13;4.65;;;3.00;;
6372;SDS011;3219;51.362;7.074;2023-07-09T12:59:42;5.63;;;3.13;;
6372;SDS011;3219;51.362;7.074;2023-07-09T13:02:14;5.82;;;3.10;;
6372;SDS011;3219;51.362;7.074;2023-07-09T13:04:41;5.13;;;3.42;;
6372;SDS011;3219;51.362;7.074;2023-07-09T13:07:23;5.93;;;3.17;;
6372;SDS011;3219;51.362;7.074;2023-07-09T13:09:53;5.78;;;3.05;;
6372;SDS011;3219;51.362;7.074;2023-07-09T13:12:22;4.60;;;2.90;;
6372;SDS011;3219;51.362;7.074;2023-07-09T13:14:54;4.82;;;3.15;;
6372;SDS011;3219;51.362;7.074;2023-07-09T13:17:21;5.20;;;2.95;;
6372;SDS011;3219;51.362;7.074;2023-07-09T13:19:48;5.65;;;3.00;;
6372;SDS011;3219;51.362;7.074;2023-07-09T13:22:16;4.47;;;3.05;;
6372;SDS011;3219;51.362;7.074;2023-07-09T13:24:44;4.88;;;2.78;;
6372;SDS011;3219;51.362;7.074;2023-07-09T13:27:13;5.78;;;3.17;;
6372;SDS011;3219;51.362;7.074;2023-07-09T13:29:41;5.65;;;3.15;;
6372;SDS011;3219;51.362;7.074;2023-07-09T13:32:08;5.20;;;3.05;;
6372;SDS011;3219;51.362;7.074;2023-07-09T13:34:35;5.63;;;2.65;;
6372;SDS011;3219;51.362;7.074;2023-07-09T13:37:04;6.57;;;3.38;;
6372;SDS011;3219;51.362;7.074;2023-07-09T13:39:31;4.90;;;3.50;;
6372;SDS011;3219;51.362;7.074;2023-07-09T13:41:58;5.80;;;2.65;;
6372;SDS011;3219;51.362;7.074;2023-07-09T13:44:29;4.68;;;2.80;;
6372;SDS011;3219;51.362;7.074;2023-07-09T13:46:56;5.00;;;2.88;;
6372;SDS011;3219;51.362;7.074;2023-07-09T13:49:24;7.10;;;2.78;;
6372;SDS011;3219;51.362;7.074;2023-07-09T13:51:52;4.70;;;2.75;;
6372;SDS011;3219;51.362;7.074;2023-07-09T13:54:21;5.28;;;3.08;;
6372;SDS011;3219;51.362;7.074;2023-07-09T13:56:48;4.35;;;2.78;;
6372;SDS011;3219;51.362;7.074;2023-07-09T13:59:16;9.18;;;2.33;;
6372;SDS011;3219;51.362;7.074;2023-07-09T14:01:46;5.32;;;3.20;;
6372;SDS011;3219;51.362;7.074;2023-07-09T14:06:40;4.70;;;2.88;;
6372;SDS011;3219;51.362;7.074;2023-07-09T14:09:08;6.63;;;3.33;;
6372;SDS011;3219;51.362;7.074;2023-07-09T14:11:35;6.65;;;2.97;;
6372;SDS011;3219;51.362;7.074;2023-07-09T14:14:04;3.58;;;3.22;;
6372;SDS011;3219;51.362;7.074;2023-07-09T14:16:37;4.07;;;2.67;;
6372;SDS011;3219;51.362;7.074;2023-07-09T14:19:09;4.85;;;3.00;;
6372;SDS011;3219;51.362;7.074;2023-07-09T14:21:39;4.85;;;3.05;;
6372;SDS011;3219;51.362;7.074;2023-07-09T14:24:08;4.78;;;2.83;;
6372;SDS011;3219;51.362;7.074;2023-07-09T14:26:41;5.90;;;3.22;;
6372;SDS011;3219;51.362;7.074;2023-07-09T14:29:08;7.32;;;3.30;;
6372;SDS011;3219;51.362;7.074;2023-07-09T14:31:36;5.28;;;3.60;;
6372;SDS011;3219;51.362;7.074;2023-07-09T14:34:11;8.57;;;3.45;;
6372;SDS011;3219;51.362;7.074;2023-07-09T14:36:44;8.88;;;3.58;;
6372;SDS011;3219;51.362;7.074;2023-07-09T14:39:11;5.13;;;3.40;;
6372;SDS011;3219;51.362;7.074;2023-07-09T14:41:38;9.48;;;4.60;;
6372;SDS011;3219;51.362;7.074;2023-07-09T14:44:08;17.60;;;5.55;;
6372;SDS011;3219;51.362;7.074;2023-07-09T14:46:42;7.75;;;3.53;;
6372;SDS011;3219;51.362;7.074;2023-07-09T14:49:09;8.77;;;3.83;;
6372;SDS011;3219;51.362;7.074;2023-07-09T14:51:36;7.15;;;4.35;;
6372;SDS011;3219;51.362;7.074;2023-07-09T14:54:07;7.30;;;3.65;;
6372;SDS011;3219;51.362;7.074;2023-07-09T14:56:37;5.97;;;3.55;;
6372;SDS011;3219;51.362;7.074;2023-07-09T14:59:04;5.78;;;4.20;;
6372;SDS011;3219;51.362;7.074;2023-07-09T15:01:31;6.68;;;3.58;;
6372;SDS011;3219;51.362;7.074;2023-07-09T15:03:58;7.25;;;3.80;;
6372;SDS011;3219;51.362;7.074;2023-07-09T15:06:25;10.05;;;4.53;;
6372;SDS011;3219;51.362;7.074;2023-07-09T15:08:52;10.02;;;4.10;;
6372;SDS011;3219;51.362;7.074;2023-07-09T15:11:21;8.05;;;3.42;;
6372;SDS011;3219;51.362;7.074;2023-07-09T15:13:48;8.07;;;3.85;;
6372;SDS011;3219;51.362;7.074;2023-07-09T15:16:15;6.63;;;3.65;;
6372;SDS011;3219;51.362;7.074;2023-07-09T15:18:42;8.95;;;4.40;;
6372;SDS011;3219;51.362;7.074;2023-07-09T15:21:09;12.65;;;4.88;;
6372;SDS011;3219;51.362;7.074;2023-07-09T15:23:39;7.43;;;3.90;;
6372;SDS011;3219;51.362;7.074;2023-07-09T15:26:11;7.03;;;3.58;;
6372;SDS011;3219;51.362;7.074;2023-07-09T15:28:40;5.68;;;3.55;;
6372;SDS011;3219;51.362;7.074;2023-07-09T15:31:09;8.15;;;4.63;;
6372;SDS011;3219;51.362;7.074;2023-07-09T15:33:36;5.28;;;3.88;;